createdAt,value
2018-03-03T00:00:33.178Z,87.13
2018-03-03T00:03:00.711Z,90.13
2018-03-03T00:05:28.217Z,91.00
2018-03-03T00:07:56.570Z,87.90
2018-03-03T00:10:24.095Z,85.27
2018-03-03T00:12:51.606Z,85.90
2018-03-03T00:15:19.169Z,96.00
2018-03-03T00:17:47.441Z,93.00
2018-03-03T00:20:14.973Z,89.20
2018-03-03T00:22:42.478Z,91.27
2018-03-03T00:25:10.766Z,90.77
2018-03-03T00:27:38.271Z,99.10
2018-03-03T00:30:05.774Z,97.50
2018-03-03T00:32:33.298Z,93.90
2018-03-03T00:35:00.807Z,96.27
2018-03-03T00:37:28.338Z,96.20
2018-03-03T00:39:56.606Z,98.77
2018-03-03T00:42:24.899Z,93.37
2018-03-03T00:44:53.171Z,91.57
2018-03-03T00:47:21.462Z,99.87
2018-03-03T00:49:48.962Z,96.77
2018-03-03T00:52:16.466Z,98.20
2018-03-03T00:54:44.754Z,95.80
2018-03-03T00:57:12.258Z,102.27
2018-03-03T00:59:39.790Z,101.03
2018-03-03T01:02:07.294Z,91.00
2018-03-03T01:04:35.610Z,97.80
2018-03-03T01:07:03.114Z,101.87
2018-03-03T01:09:30.647Z,93.63
2018-03-03T01:11:58.150Z,95.47
2018-03-03T01:14:25.709Z,99.80
2018-03-03T01:16:53.193Z,96.60
2018-03-03T01:19:20.722Z,89.37
2018-03-03T01:21:48.228Z,99.33
2018-03-03T01:24:15.738Z,100.27
2018-03-03T01:26:43.266Z,99.77
2018-03-03T01:29:10.786Z,96.30
2018-03-03T01:31:38.318Z,96.73
2018-03-03T01:34:06.589Z,95.80
2018-03-03T01:36:34.117Z,98.63
2018-03-03T01:39:01.639Z,101.20
2018-03-03T01:41:29.166Z,97.50
2018-03-03T01:43:56.675Z,95.83
2018-03-03T01:46:24.180Z,101.10
2018-03-03T01:48:51.711Z,97.07
2018-03-03T01:51:30.937Z,102.50
2018-03-03T01:53:58.463Z,102.23
2018-03-03T01:56:25.971Z,103.43
2018-03-03T01:58:53.502Z,105.33
2018-03-03T02:01:21.005Z,106.50
2018-03-03T02:03:48.511Z,105.03
2018-03-03T02:06:16.046Z,104.70
2018-03-03T02:08:44.318Z,108.37
2018-03-03T02:11:12.615Z,101.97
2018-03-03T02:13:40.126Z,108.87
2018-03-03T02:16:07.659Z,111.63
2018-03-03T02:18:35.170Z,100.87
2018-03-03T02:21:03.437Z,107.80
2018-03-03T02:23:30.967Z,105.03
2018-03-03T02:25:58.486Z,98.33
2018-03-03T02:28:26.018Z,107.60
2018-03-03T02:30:54.290Z,110.03
2018-03-03T02:33:21.824Z,114.13
2018-03-03T02:35:49.331Z,107.33
2018-03-03T02:38:16.834Z,101.87
2018-03-03T02:40:44.359Z,104.50
2018-03-03T02:43:11.872Z,118.93
2018-03-03T02:45:39.403Z,113.17
2018-03-03T02:48:06.919Z,102.37
2018-03-03T02:50:35.221Z,96.37
2018-03-03T02:53:02.726Z,102.77
2018-03-03T02:55:30.230Z,103.50
2018-03-03T02:57:57.753Z,106.97
2018-03-03T03:00:25.257Z,100.60
2018-03-03T03:02:52.778Z,86.47
2018-03-03T03:05:21.046Z,97.47
2018-03-03T03:07:49.346Z,99.77
2018-03-03T03:10:17.624Z,100.93
2018-03-03T03:12:45.155Z,99.53
2018-03-03T03:15:13.427Z,92.20
2018-03-03T03:17:41.710Z,95.33
2018-03-03T03:20:09.233Z,95.90
2018-03-03T03:22:36.735Z,98.33
2018-03-03T03:25:05.022Z,97.13
2018-03-03T03:27:33.296Z,97.43
2018-03-03T03:30:01.595Z,100.57
2018-03-03T03:32:29.098Z,98.10
2018-03-03T03:34:56.597Z,98.50
2018-03-03T03:37:24.126Z,110.50
2018-03-03T03:39:51.630Z,110.73
2018-03-03T03:42:19.154Z,104.50
2018-03-03T03:44:47.423Z,96.93
2018-03-03T03:47:14.950Z,97.47
2018-03-03T03:49:42.458Z,95.67
2018-03-03T03:52:10.750Z,103.17
2018-03-03T03:54:38.254Z,99.67
2018-03-03T03:57:05.750Z,95.17
2018-03-03T03:59:34.038Z,94.00
2018-03-03T04:02:01.542Z,97.43
2018-03-03T04:04:29.072Z,93.27
2018-03-03T04:06:56.575Z,98.40
2018-03-03T04:09:24.110Z,104.33
2018-03-03T04:11:51.610Z,94.33
2018-03-03T04:14:19.883Z,102.50
2018-03-03T04:16:47.406Z,97.17
2018-03-03T04:19:14.906Z,93.93
2018-03-03T04:21:43.198Z,93.80
2018-03-03T04:24:11.462Z,98.97
2018-03-03T04:26:39.762Z,89.63
2018-03-03T04:29:07.268Z,100.17
2018-03-03T04:31:34.802Z,103.00
2018-03-03T04:34:02.314Z,102.77
2018-03-03T04:36:30.582Z,93.30
2018-03-03T04:38:58.879Z,93.43
2018-03-03T04:41:27.153Z,92.10
2018-03-03T04:43:55.442Z,89.70
2018-03-03T04:46:22.938Z,98.93
2018-03-03T04:48:50.468Z,89.27
2018-03-03T04:51:17.974Z,93.07
2018-03-03T04:53:45.502Z,92.17
2018-03-03T04:56:13.048Z,93.43
2018-03-03T04:58:41.594Z,91.30
2018-03-03T05:01:11.366Z,89.77
2018-03-03T05:06:50.927Z,94.00
2018-03-03T05:09:18.459Z,90.23
2018-03-03T05:11:45.958Z,94.53
2018-03-03T05:17:26.842Z,85.30
2018-03-03T05:23:11.518Z,95.53
2018-03-03T05:25:44.730Z,95.20
2018-03-03T05:28:20.786Z,88.33
2018-03-03T05:30:54.106Z,98.77
2018-03-03T05:33:28.126Z,85.23
2018-03-03T05:36:02.016Z,96.20
2018-03-03T05:38:32.269Z,90.37
2018-03-03T05:41:05.533Z,88.77
2018-03-03T05:46:43.414Z,88.40
2018-03-03T05:49:28.578Z,91.20
2018-03-03T05:52:01.699Z,91.63
2018-03-03T05:54:34.977Z,93.57
2018-03-03T05:57:08.293Z,88.90
2018-03-03T05:59:41.554Z,94.27
2018-03-03T06:05:12.962Z,90.20
2018-03-03T06:07:46.217Z,94.00
2018-03-03T06:10:13.655Z,83.57
2018-03-03T06:12:41.154Z,89.40
2018-03-03T06:15:08.679Z,92.37
2018-03-03T06:17:36.182Z,85.07
2018-03-03T06:20:03.708Z,97.30
2018-03-03T06:22:31.211Z,97.93
2018-03-03T06:24:58.738Z,86.53
2018-03-03T06:27:26.238Z,100.37
2018-03-03T06:29:54.508Z,90.30
2018-03-03T06:32:22.796Z,92.63
2018-03-03T06:34:51.062Z,96.83
2018-03-03T06:37:19.354Z,90.50
2018-03-03T06:39:47.618Z,87.77
2018-03-03T06:42:15.906Z,94.00
2018-03-03T06:44:44.170Z,98.50
2018-03-03T06:47:12.437Z,89.67
2018-03-03T06:49:40.726Z,94.07
2018-03-03T06:52:08.990Z,100.77
2018-03-03T06:54:36.518Z,86.37
2018-03-03T06:57:04.014Z,93.23
2018-03-03T06:59:32.307Z,86.07
2018-03-03T07:01:59.806Z,90.00
2018-03-03T07:04:27.325Z,90.50
2018-03-03T07:06:54.831Z,104.50
2018-03-03T07:09:22.357Z,92.77
2018-03-03T07:11:49.853Z,94.70
2018-03-03T07:14:17.353Z,87.60
2018-03-03T07:16:45.645Z,89.40
2018-03-03T07:19:13.141Z,88.60
2018-03-03T07:21:40.664Z,94.90
2018-03-03T07:24:08.170Z,87.83
2018-03-03T07:26:35.690Z,97.40
2018-03-03T07:29:03.192Z,87.37
2018-03-03T07:31:30.720Z,91.30
2018-03-03T07:33:58.222Z,92.00
2018-03-03T07:36:25.746Z,100.53
2018-03-03T07:38:53.246Z,96.90
2018-03-03T07:41:21.515Z,93.63
2018-03-03T07:43:49.805Z,91.70
2018-03-03T07:46:18.074Z,95.70
2018-03-03T07:48:46.369Z,86.07
2018-03-03T07:51:13.881Z,88.17
2018-03-03T07:53:41.401Z,98.03
2018-03-03T07:56:08.898Z,94.47
2018-03-03T07:58:48.374Z,89.60
2018-03-03T08:01:16.640Z,88.37
2018-03-03T08:03:44.914Z,91.10
2018-03-03T08:06:13.202Z,90.80
2018-03-03T08:08:41.470Z,91.53
2018-03-03T08:11:09.759Z,92.07
2018-03-03T08:13:38.022Z,92.63
2018-03-03T08:16:06.314Z,97.20
2018-03-03T08:18:33.814Z,95.30
2018-03-03T08:21:01.315Z,84.67
2018-03-03T08:23:29.613Z,94.47
2018-03-03T08:25:57.119Z,90.80
2018-03-03T08:28:24.642Z,95.77
2018-03-03T08:30:52.146Z,90.03
2018-03-03T08:33:19.671Z,88.80
2018-03-03T08:35:47.176Z,85.13
2018-03-03T08:38:14.678Z,95.07
2018-03-03T08:40:42.198Z,98.77
2018-03-03T08:43:10.471Z,83.60
2018-03-03T08:45:38.773Z,100.80
2018-03-03T08:48:06.278Z,86.90
2018-03-03T08:50:33.795Z,92.53
2018-03-03T08:53:01.290Z,94.93
2018-03-03T08:55:28.810Z,92.93
2018-03-03T08:57:56.310Z,97.37
2018-03-03T09:00:23.801Z,99.90
2018-03-03T09:02:52.086Z,92.93
2018-03-03T09:05:20.350Z,90.33
2018-03-03T09:07:47.870Z,100.47
2018-03-03T09:10:15.366Z,89.57
2018-03-03T09:12:42.886Z,97.37
2018-03-03T09:15:10.382Z,95.90
2018-03-03T09:17:37.901Z,91.00
2018-03-03T09:20:05.398Z,94.13
2018-03-03T09:22:32.906Z,92.97
2018-03-03T09:25:00.427Z,96.10
2018-03-03T09:27:28.690Z,95.27
2018-03-03T09:29:56.215Z,99.17
2018-03-03T09:32:23.714Z,94.73
2018-03-03T09:34:51.998Z,99.83
2018-03-03T09:37:20.263Z,96.33
2018-03-03T09:39:48.570Z,92.60
2018-03-03T09:42:16.065Z,90.77
2018-03-03T09:44:43.563Z,99.07
2018-03-03T09:47:11.851Z,98.67
2018-03-03T09:49:40.119Z,94.77
2018-03-03T09:52:08.406Z,102.80
2018-03-03T09:54:35.922Z,101.00
2018-03-03T09:57:03.450Z,103.17
2018-03-03T09:59:30.972Z,100.53
2018-03-03T10:02:06.292Z,95.73
2018-03-03T10:04:26.787Z,100.73
2018-03-03T10:06:54.287Z,98.40
2018-03-03T10:09:21.807Z,92.80
2018-03-03T10:11:49.307Z,90.83
2018-03-03T10:14:16.827Z,90.93
2018-03-03T10:16:44.323Z,96.83
2018-03-03T10:19:11.842Z,94.27
2018-03-03T10:21:39.338Z,96.83
2018-03-03T10:24:06.866Z,99.83
2018-03-03T10:26:35.130Z,96.50
2018-03-03T10:29:02.651Z,93.20
2018-03-03T10:31:30.150Z,99.20
2018-03-03T10:33:57.646Z,93.83
2018-03-03T10:36:25.167Z,95.43
2018-03-03T10:38:52.718Z,93.97
2018-03-03T10:41:20.242Z,93.50
2018-03-03T10:43:47.738Z,99.70
2018-03-03T10:46:15.262Z,102.37
2018-03-03T10:48:42.758Z,96.90
2018-03-03T10:51:10.280Z,97.33
2018-03-03T10:53:37.778Z,97.47
2018-03-03T10:56:05.299Z,94.47
2018-03-03T10:58:32.809Z,96.43
2018-03-03T11:01:01.087Z,110.03
2018-03-03T11:03:29.376Z,98.00
2018-03-03T11:05:56.882Z,93.53
2018-03-03T11:08:24.406Z,96.60
2018-03-03T11:10:51.915Z,104.17
2018-03-03T11:13:19.435Z,96.83
2018-03-03T11:15:46.940Z,104.77
2018-03-03T11:18:14.475Z,104.03
2018-03-03T11:20:41.983Z,99.40
2018-03-03T11:23:10.248Z,104.00
2018-03-03T11:25:38.541Z,100.03
2018-03-03T11:28:06.043Z,101.97
2018-03-03T11:30:33.565Z,103.17
2018-03-03T11:33:01.067Z,98.80
2018-03-03T11:35:28.599Z,104.77
2018-03-03T11:37:56.098Z,97.40
2018-03-03T11:40:23.622Z,102.50
2018-03-03T11:42:51.126Z,100.73
2018-03-03T11:45:19.394Z,99.60
2018-03-03T11:47:46.918Z,100.50
2018-03-03T11:50:14.416Z,106.60
2018-03-03T11:52:42.706Z,103.30
2018-03-03T11:55:10.970Z,108.67
2018-03-03T11:57:38.493Z,110.03
2018-03-03T12:00:05.994Z,102.03
2018-03-03T12:02:34.267Z,102.90
2018-03-03T12:05:01.791Z,102.33
2018-03-03T12:07:29.290Z,111.03
2018-03-03T12:09:57.578Z,96.90
2018-03-03T12:12:25.843Z,104.93
2018-03-03T12:14:54.129Z,95.10
2018-03-03T12:17:22.386Z,93.47
2018-03-03T12:19:49.895Z,107.50
2018-03-03T12:22:17.418Z,102.67
2018-03-03T12:24:45.683Z,104.10
2018-03-03T12:27:13.218Z,101.37
2018-03-03T12:29:40.722Z,94.23
2018-03-03T12:32:08.364Z,103.17
2018-03-03T12:34:36.631Z,109.87
2018-03-03T12:37:04.158Z,99.63
2018-03-03T12:39:31.663Z,97.23
2018-03-03T12:41:59.940Z,100.13
2018-03-03T12:44:27.473Z,103.90
2018-03-03T12:46:54.974Z,104.03
2018-03-03T12:49:22.492Z,98.17
2018-03-03T12:51:49.990Z,103.53
2018-03-03T12:54:17.510Z,107.47
2018-03-03T12:56:45.016Z,102.40
2018-03-03T12:59:12.538Z,107.30
2018-03-03T13:01:40.030Z,106.97
2018-03-03T13:04:07.531Z,106.90
2018-03-03T13:06:35.055Z,109.63
2018-03-03T13:09:02.554Z,108.80
2018-03-03T13:11:30.074Z,102.40
2018-03-03T13:13:57.570Z,108.27
2018-03-03T13:16:25.094Z,108.17
2018-03-03T13:18:52.589Z,105.27
2018-03-03T13:21:20.114Z,106.30
2018-03-03T13:23:47.615Z,110.77
2018-03-03T13:26:15.892Z,123.57
2018-03-03T13:28:44.182Z,126.13
2018-03-03T13:31:12.450Z,110.50
2018-03-03T13:33:39.973Z,104.50
2018-03-03T13:36:07.474Z,105.53
2018-03-03T13:38:35.762Z,109.03
2018-03-03T13:41:04.042Z,133.63
2018-03-03T13:43:31.565Z,130.40
2018-03-03T13:45:59.062Z,148.20
2018-03-03T13:48:26.562Z,119.53
2018-03-03T13:50:54.082Z,125.97
2018-03-03T13:53:21.582Z,120.13
2018-03-03T13:55:49.103Z,109.23
2018-03-03T13:58:16.609Z,115.43
2018-03-03T14:00:44.135Z,118.10
2018-03-03T14:03:11.635Z,115.43
2018-03-03T14:05:39.162Z,113.70
2018-03-03T14:08:06.657Z,114.57
2018-03-03T14:10:34.164Z,112.57
2018-03-03T14:13:01.690Z,106.73
2018-03-03T14:15:29.954Z,106.50
2018-03-03T14:17:57.482Z,112.30
2018-03-03T14:20:24.979Z,118.70
2018-03-03T14:22:53.272Z,108.30
2018-03-03T14:25:21.539Z,112.93
2018-03-03T14:27:49.826Z,110.43
2018-03-03T14:30:18.091Z,109.57
2018-03-03T14:32:46.363Z,112.50
2018-03-03T14:35:14.650Z,105.30
2018-03-03T14:37:42.918Z,104.83
2018-03-03T14:40:11.210Z,108.97
2018-03-03T14:42:38.711Z,114.37
2018-03-03T14:45:06.234Z,113.73
2018-03-03T14:47:33.735Z,112.03
2018-03-03T14:50:01.264Z,114.37
2018-03-03T14:52:28.762Z,113.20
2018-03-03T14:54:56.263Z,115.30
2018-03-03T14:57:23.782Z,109.30
2018-03-03T14:59:51.283Z,110.93
2018-03-03T15:02:18.810Z,113.20
2018-03-03T15:04:46.310Z,111.00
2018-03-03T15:07:13.834Z,113.50
2018-03-03T15:09:42.098Z,116.17
2018-03-03T15:12:09.627Z,114.50
2018-03-03T15:14:37.132Z,110.80
2018-03-03T15:17:05.423Z,109.67
2018-03-03T15:19:32.927Z,110.17
2018-03-03T15:22:00.434Z,115.33
2018-03-03T15:24:28.723Z,115.30
2018-03-03T15:26:56.225Z,113.93
2018-03-03T15:29:23.751Z,114.37
2018-03-03T15:31:51.254Z,117.70
2018-03-03T15:34:18.773Z,119.77
2018-03-03T15:36:46.275Z,115.23
2018-03-03T15:39:13.808Z,122.40
2018-03-03T15:41:41.305Z,123.70
2018-03-03T15:44:09.570Z,124.33
2018-03-03T15:46:37.093Z,112.73
2018-03-03T15:49:04.590Z,114.37
2018-03-03T15:51:32.118Z,113.27
2018-03-03T15:53:59.616Z,111.37
2018-03-03T15:56:27.941Z,108.70
2018-03-03T15:58:55.450Z,104.43
2018-03-03T16:01:22.966Z,116.27
2018-03-03T16:03:50.462Z,116.17
2018-03-03T16:06:17.963Z,115.57
2018-03-03T16:08:45.481Z,116.60
2018-03-03T16:11:12.981Z,110.37
2018-03-03T16:13:40.498Z,105.17
2018-03-03T16:16:08.002Z,100.93
2018-03-03T16:18:35.522Z,108.30
2018-03-03T16:21:03.786Z,111.93
2018-03-03T16:23:31.310Z,110.53
2018-03-03T16:25:58.814Z,111.50
2018-03-03T16:28:27.089Z,121.57
2018-03-03T16:30:55.374Z,108.97
2018-03-03T16:33:23.646Z,114.60
2018-03-03T16:35:51.938Z,108.70
2018-03-03T16:38:19.431Z,118.10
2018-03-03T16:40:46.958Z,115.03
2018-03-03T16:43:14.459Z,118.53
2018-03-03T16:45:41.983Z,121.73
2018-03-03T16:48:09.482Z,114.00
2018-03-03T16:50:36.982Z,113.03
2018-03-03T16:53:05.275Z,107.77
2018-03-03T16:55:32.778Z,110.23
2018-03-03T16:58:00.299Z,116.43
2018-03-03T17:00:27.798Z,115.30
2018-03-03T17:02:55.356Z,111.10
2018-03-03T17:05:22.843Z,122.53
2018-03-03T17:07:51.130Z,120.43
2018-03-03T17:10:19.394Z,114.63
2018-03-03T17:12:47.661Z,113.77
2018-03-03T17:15:15.190Z,113.13
2018-03-03T17:17:42.687Z,110.03
2018-03-03T17:20:10.974Z,114.10
2018-03-03T17:22:39.238Z,108.67
2018-03-03T17:25:07.522Z,107.57
2018-03-03T17:27:35.777Z,104.30
2018-03-03T17:30:03.302Z,110.20
2018-03-03T17:32:30.799Z,101.77
2018-03-03T17:34:58.321Z,107.90
2018-03-03T17:37:25.817Z,109.97
2018-03-03T17:39:53.313Z,114.47
2018-03-03T17:42:20.834Z,108.43
2018-03-03T17:44:48.335Z,114.53
2018-03-03T17:47:15.858Z,105.00
2018-03-03T17:49:44.118Z,106.20
2018-03-03T17:52:11.652Z,108.33
2018-03-03T17:54:39.146Z,103.50
2018-03-03T17:57:06.671Z,113.10
2018-03-03T17:59:34.171Z,109.93
2018-03-03T18:02:02.437Z,108.60
2018-03-03T18:04:29.962Z,115.13
2018-03-03T18:06:57.466Z,117.13
2018-03-03T18:09:25.750Z,112.60
2018-03-03T18:11:59.442Z,107.77
2018-03-03T18:14:27.726Z,110.13
2018-03-03T18:16:55.998Z,112.43
2018-03-03T18:19:39.963Z,113.77
2018-03-03T18:22:07.463Z,119.03
2018-03-03T18:24:36.579Z,114.47
2018-03-03T18:27:04.079Z,107.03
2018-03-03T18:29:31.578Z,106.63
2018-03-03T18:31:59.108Z,111.00
2018-03-03T18:34:26.611Z,108.13
2018-03-03T18:36:54.134Z,115.07
2018-03-03T18:39:21.679Z,103.37
2018-03-03T18:41:49.944Z,110.87
2018-03-03T18:44:17.445Z,110.90
2018-03-03T18:46:44.970Z,108.83
2018-03-03T18:49:12.466Z,115.17
2018-03-03T18:51:39.991Z,103.97
2018-03-03T18:54:07.510Z,115.63
2018-03-03T18:56:35.778Z,109.37
2018-03-03T18:59:03.310Z,117.77
2018-03-03T19:01:30.811Z,112.63
2018-03-03T19:03:59.103Z,114.53
2018-03-03T19:06:26.602Z,148.33
2018-03-03T19:08:54.127Z,134.57
2018-03-03T19:11:21.630Z,112.43
2018-03-03T19:13:49.157Z,108.13
2018-03-03T19:16:16.663Z,107.97
2018-03-03T19:18:44.166Z,108.70
2018-03-03T19:21:11.695Z,101.10
2018-03-03T19:23:39.962Z,112.60
2018-03-03T19:26:07.482Z,98.50
2018-03-03T19:28:34.979Z,97.73
2018-03-03T19:31:02.503Z,100.13
2018-03-03T19:33:30.003Z,100.40
2018-03-03T19:35:58.271Z,97.27
2018-03-03T19:38:25.794Z,105.47
2018-03-03T19:40:53.286Z,97.33
2018-03-03T19:43:20.807Z,105.50
2018-03-03T19:45:48.302Z,97.13
2018-03-03T19:48:15.823Z,107.37
2018-03-03T19:50:43.325Z,97.97
2018-03-03T19:53:11.619Z,107.97
2018-03-03T19:55:39.885Z,101.90
2018-03-03T19:58:08.147Z,101.70
2018-03-03T20:00:35.671Z,103.27
2018-03-03T20:03:03.175Z,100.97
2018-03-03T20:05:31.467Z,103.10
2018-03-03T20:07:58.967Z,103.07
2018-03-03T20:10:26.486Z,108.10
2018-03-03T20:12:53.985Z,111.57
2018-03-03T20:15:21.508Z,101.33
2018-03-03T20:17:49.011Z,103.20
2018-03-03T20:20:16.505Z,197.13
2018-03-03T20:22:44.790Z,110.90
2018-03-03T20:25:13.055Z,106.93
2018-03-03T20:27:41.342Z,98.90
2018-03-03T20:30:09.606Z,104.70
2018-03-03T20:32:37.894Z,107.47
2018-03-03T20:35:06.160Z,125.93
2018-03-03T20:37:34.451Z,112.00
2018-03-03T20:40:01.955Z,121.47
2018-03-03T20:42:29.453Z,110.30
2018-03-03T20:44:57.742Z,121.53
2018-03-03T20:47:26.006Z,116.90
2018-03-03T20:49:54.294Z,123.90
2018-03-03T20:52:22.558Z,115.07
2018-03-03T20:54:50.854Z,123.40
2018-03-03T20:57:18.353Z,114.97
2018-03-03T20:59:45.883Z,125.33
2018-03-03T21:02:13.383Z,118.30
2018-03-03T21:04:40.878Z,116.33
2018-03-03T21:07:09.166Z,112.03
2018-03-03T21:09:36.666Z,117.60
2018-03-03T21:12:04.187Z,111.77
2018-03-03T21:14:31.691Z,113.90
2018-03-03T21:16:59.211Z,108.47
2018-03-03T21:19:26.717Z,113.47
2018-03-03T21:21:54.237Z,116.20
2018-03-03T21:24:21.740Z,119.70
2018-03-03T21:26:49.242Z,117.47
2018-03-03T21:29:16.762Z,118.57
2018-03-03T21:31:45.030Z,116.97
2018-03-03T21:34:12.554Z,123.23
2018-03-03T21:36:40.049Z,123.47
2018-03-03T21:39:07.571Z,127.03
2018-03-03T21:41:35.115Z,122.03
2018-03-03T21:44:02.638Z,119.40
2018-03-03T21:46:30.902Z,117.40
2018-03-03T21:48:58.408Z,127.77
2018-03-03T21:51:25.933Z,116.80
2018-03-03T21:53:54.198Z,111.73
2018-03-03T21:56:21.722Z,124.57
2018-03-03T21:58:49.219Z,133.17
2018-03-03T22:01:16.738Z,119.57
2018-03-03T22:03:44.235Z,118.33
2018-03-03T22:06:12.529Z,120.50
2018-03-03T22:08:40.794Z,120.60
2018-03-03T22:11:09.082Z,117.97
2018-03-03T22:13:37.352Z,120.57
2018-03-03T22:16:05.631Z,117.57
2018-03-03T22:18:33.914Z,115.17
2018-03-03T22:21:02.179Z,116.23
2018-03-03T22:23:30.471Z,117.47
2018-03-03T22:25:57.974Z,109.30
2018-03-03T22:28:25.500Z,115.70
2018-03-03T22:30:52.998Z,115.47
2018-03-03T22:33:20.523Z,108.20
2018-03-03T22:35:48.022Z,102.70
2018-03-03T22:38:16.300Z,103.63
2018-03-03T22:40:43.822Z,112.03
2018-03-03T22:43:11.317Z,116.57
2018-03-03T22:45:38.842Z,103.80
2018-03-03T22:48:06.339Z,109.90
2018-03-03T22:50:34.626Z,112.40
2018-03-03T22:53:02.128Z,116.80
2018-03-03T22:55:29.674Z,114.20
2018-03-03T22:57:57.174Z,109.20
2018-03-03T23:00:24.698Z,108.37
2018-03-03T23:02:52.202Z,106.90
2018-03-03T23:05:19.727Z,113.93
2018-03-03T23:07:47.246Z,107.10
2018-03-03T23:10:15.510Z,103.30
2018-03-03T23:12:43.035Z,102.70
2018-03-03T23:15:10.534Z,107.93
2018-03-03T23:17:38.823Z,106.43
2018-03-03T23:20:07.086Z,112.13
2018-03-03T23:22:35.379Z,111.47
2018-03-03T23:25:02.878Z,99.70
2018-03-03T23:27:30.374Z,97.30
2018-03-03T23:29:57.899Z,106.67
2018-03-03T23:32:25.396Z,96.03
2018-03-03T23:34:53.686Z,110.43
2018-03-03T23:37:21.958Z,105.43
2018-03-03T23:39:50.250Z,110.07
2018-03-03T23:42:17.758Z,113.73
2018-03-03T23:44:45.286Z,105.23
2018-03-03T23:47:12.786Z,107.20
2018-03-03T23:49:40.288Z,104.30
2018-03-03T23:52:07.818Z,110.40
2018-03-03T23:54:36.082Z,102.90
2018-03-03T23:57:03.602Z,105.47
2018-03-03T23:59:31.098Z,99.90
